Louisburg, Missouri
Current Conditions -  °F | °C
As of 2:15 PM on Thursday 29 Jan 2015 (Local Time) from KH21 Reporting Station
Overcast Overcast  
Wind Chill: 30°   Ceiling: 2900
Heat Index: 39°   Visibility: 10mi
Dew Point: 30°   Wind: 16mph
Humidity: 70%   Direction: 310°NW
Pressure: 30.3"   Gusts: 25mph
Location:  37.76°N, 93.14°W
Report Text: KH21 292015Z AUTO 31014G22KT 10SM OVC029 04/M01 A3030 RMK AO2
Loading
Personal Weather Stations






























Interactive Weather Map New forecast layout! Learn more

10-Day Weather Forecast

Advertisements
Track Severe Weather on mobile